createdAt,value
2022-12-24T00:01:12.432Z,98483.13
2022-12-24T00:03:39.991Z,98482.56
2022-12-24T00:06:07.927Z,98482.25
2022-12-24T00:08:35.214Z,98476.03
2022-12-24T00:11:02.647Z,98477.50
2022-12-24T00:13:29.839Z,98469.87
2022-12-24T00:15:57.062Z,98469.66
2022-12-24T00:18:24.498Z,98463.59
2022-12-24T00:20:51.666Z,98459.06
2022-12-24T00:23:19.214Z,98450.31
2022-12-24T00:25:47.210Z,98451.34
2022-12-24T00:28:14.477Z,98456.50
2022-12-24T00:30:42.163Z,98468.09
2022-12-24T00:33:09.756Z,98459.69
2022-12-24T00:35:37.500Z,98469.56
2022-12-24T00:38:04.867Z,98467.91
2022-12-24T00:40:32.483Z,98477.22
2022-12-24T00:42:59.644Z,98516.53
2022-12-24T00:45:29.558Z,98543.41
2022-12-24T00:47:57.025Z,98525.88
2022-12-24T00:50:24.292Z,98533.50
2022-12-24T00:52:51.563Z,98520.38
2022-12-24T00:55:19.011Z,98522.34
2022-12-24T00:57:46.157Z,98511.19
2022-12-24T01:00:13.418Z,98503.16
2022-12-24T01:02:40.954Z,98500.66
2022-12-24T01:05:10.389Z,98489.88
2022-12-24T01:07:38.118Z,98475.34
2022-12-24T01:10:06.195Z,98466.75
2022-12-24T01:12:33.445Z,98470.00
2022-12-24T01:15:00.656Z,98455.38
2022-12-24T01:17:28.418Z,98440.38
2022-12-24T01:19:57.597Z,98432.41
2022-12-24T01:22:24.829Z,98425.56
2022-12-24T01:24:52.372Z,98428.09
2022-12-24T01:27:20.674Z,98437.41
2022-12-24T01:29:47.836Z,98429.53
2022-12-24T01:32:15.321Z,98441.62
2022-12-24T01:34:42.608Z,98457.25
2022-12-24T01:37:09.786Z,98451.03
2022-12-24T01:39:37.232Z,98446.50
2022-12-24T01:42:30.489Z,98410.31
2022-12-24T01:45:17.868Z,98445.06
2022-12-24T01:47:45.048Z,98447.75
2022-12-24T01:50:13.960Z,98440.06
2022-12-24T01:52:41.159Z,98448.75
2022-12-24T01:55:10.019Z,98436.75
2022-12-24T01:57:42.360Z,98433.59
2022-12-24T02:00:13.302Z,98442.97
2022-12-24T02:02:41.190Z,98448.13
2022-12-24T02:05:09.880Z,98435.56
2022-12-24T02:07:37.144Z,98432.81
2022-12-24T02:10:05.099Z,98432.06
2022-12-24T02:12:33.122Z,98446.75
2022-12-24T02:15:00.288Z,98437.22
2022-12-24T02:17:30.045Z,98455.75
2022-12-24T02:20:16.193Z,98468.53
2022-12-24T02:22:43.626Z,98488.56
2022-12-24T02:25:10.754Z,98526.16
2022-12-24T02:27:42.694Z,98508.38
2022-12-24T02:30:10.387Z,98488.47
2022-12-24T02:32:43.873Z,98469.44
2022-12-24T02:35:11.302Z,98452.59
2022-12-24T02:37:40.192Z,98442.09
2022-12-24T02:40:18.603Z,98440.28
2022-12-24T02:42:47.447Z,98442.16
2022-12-24T02:45:15.688Z,98446.97
2022-12-24T02:47:42.987Z,98446.44
2022-12-24T02:50:11.176Z,98450.59
2022-12-24T02:52:41.987Z,98450.69
2022-12-24T02:55:38.179Z,98446.75
2022-12-24T02:58:17.892Z,98445.28
2022-12-24T03:00:46.505Z,98450.41
2022-12-24T03:03:16.746Z,98463.94
2022-12-24T03:05:52.097Z,98466.88
2022-12-24T03:08:27.205Z,98466.59
2022-12-24T03:10:58.129Z,98466.44
2022-12-24T03:13:26.597Z,98464.72
2022-12-24T03:15:53.930Z,98466.00
2022-12-24T03:18:22.499Z,98468.28
2022-12-24T03:20:55.034Z,98468.25
2022-12-24T03:23:22.160Z,98468.53
2022-12-24T03:25:49.650Z,98470.03
2022-12-24T03:28:17.056Z,98465.41
2022-12-24T03:30:45.249Z,98459.53
2022-12-24T03:33:13.366Z,98470.31
2022-12-24T03:35:40.550Z,98462.91
2022-12-24T03:38:07.716Z,98462.59
2022-12-24T03:40:35.168Z,98467.25
2022-12-24T03:43:02.347Z,98468.63
2022-12-24T03:45:29.651Z,98482.31
2022-12-24T03:47:57.097Z,98471.41
2022-12-24T03:50:24.253Z,98470.44
2022-12-24T03:52:51.439Z,98490.97
2022-12-24T03:55:18.879Z,98490.63
2022-12-24T03:57:46.052Z,98495.84
2022-12-24T04:00:13.424Z,98496.97
2022-12-24T04:02:43.344Z,98501.25
2022-12-24T04:05:15.036Z,98497.38
2022-12-24T04:07:42.749Z,98496.12
2022-12-24T04:10:10.329Z,98502.47
2022-12-24T04:12:37.664Z,98494.34
2022-12-24T04:15:05.436Z,98494.34
2022-12-24T04:17:32.866Z,98502.38
2022-12-24T04:20:00.221Z,98507.59
2022-12-24T04:22:27.684Z,98524.22
2022-12-24T04:24:54.856Z,98525.88
2022-12-24T04:27:25.343Z,98514.69
2022-12-24T04:29:57.545Z,98517.84
2022-12-24T04:32:25.736Z,98516.88
2022-12-24T04:34:52.895Z,98516.75
2022-12-24T04:37:20.335Z,98514.59
2022-12-24T04:39:47.727Z,98503.16
2022-12-24T04:42:14.878Z,98510.75
2022-12-24T04:44:42.327Z,98508.16
2022-12-24T04:47:10.745Z,98509.00
2022-12-24T04:49:38.027Z,98515.22
2022-12-24T04:52:05.602Z,98513.31
2022-12-24T04:54:32.930Z,98512.31
2022-12-24T04:57:00.113Z,98506.28
2022-12-24T04:59:27.555Z,98508.84
2022-12-24T05:01:54.757Z,98514.94
2022-12-24T05:04:22.035Z,98511.06
2022-12-24T05:06:49.500Z,98510.38
2022-12-24T05:09:16.698Z,98502.53
2022-12-24T05:11:43.956Z,98516.25
2022-12-24T05:14:11.403Z,98506.56
2022-12-24T05:16:38.866Z,98513.47
2022-12-24T05:19:06.124Z,98513.59
2022-12-24T05:21:33.567Z,98520.59
2022-12-24T05:24:19.538Z,98529.69
2022-12-24T05:26:50.499Z,98518.38
2022-12-24T05:29:17.663Z,98536.81
2022-12-24T05:31:45.171Z,98540.13
2022-12-24T05:34:13.353Z,98535.91
2022-12-24T05:36:40.556Z,98543.38
2022-12-24T05:39:13.396Z,98550.66
2022-12-24T05:41:42.793Z,98538.25
2022-12-24T05:44:09.951Z,98543.41
2022-12-24T05:46:38.209Z,98548.97
2022-12-24T05:49:05.712Z,98533.84
2022-12-24T05:51:32.856Z,98520.69
2022-12-24T05:54:01.358Z,98517.03
2022-12-24T05:56:28.795Z,98530.44
2022-12-24T05:58:56.247Z,98535.69
2022-12-24T06:01:23.731Z,98519.91
2022-12-24T06:03:51.542Z,98540.50
2022-12-24T06:06:22.945Z,98543.41
2022-12-24T06:08:50.836Z,98553.03
2022-12-24T06:11:20.486Z,98550.22
2022-12-24T06:13:47.820Z,98541.56
2022-12-24T06:16:16.620Z,98544.28
2022-12-24T06:18:43.881Z,98544.28
2022-12-24T06:21:11.073Z,98557.62
2022-12-24T06:23:39.949Z,98555.00
2022-12-24T06:26:07.532Z,98550.00
2022-12-24T06:28:36.049Z,98550.63
2022-12-24T06:31:04.075Z,98553.44
2022-12-24T06:33:31.648Z,98550.75
2022-12-24T06:35:59.044Z,98551.94
2022-12-24T06:38:26.496Z,98565.22
2022-12-24T06:40:55.912Z,98567.75
2022-12-24T06:43:23.393Z,98576.37
2022-12-24T06:45:50.872Z,98575.31
2022-12-24T06:48:18.075Z,98576.31
2022-12-24T06:50:45.232Z,98588.63
2022-12-24T06:53:13.017Z,98596.41
2022-12-24T06:55:40.195Z,98591.22
2022-12-24T06:58:07.370Z,98589.41
2022-12-24T07:00:34.957Z,98588.91
2022-12-24T07:03:02.101Z,98603.38
2022-12-24T07:05:29.615Z,98599.50
2022-12-24T07:07:57.120Z,98601.00
2022-12-24T07:10:24.473Z,98596.78
2022-12-24T07:12:51.758Z,98604.53
2022-12-24T07:15:19.187Z,98598.28
2022-12-24T07:17:46.610Z,98602.59
2022-12-24T07:20:15.092Z,98604.72
2022-12-24T07:22:43.020Z,98602.94
2022-12-24T07:25:10.555Z,98606.25
2022-12-24T07:27:37.975Z,98590.63
2022-12-24T07:30:05.762Z,98601.94
2022-12-24T07:32:33.001Z,98605.00
2022-12-24T07:35:00.186Z,98609.28
2022-12-24T07:37:27.634Z,98613.94
2022-12-24T07:39:54.810Z,98616.09
2022-12-24T07:42:22.031Z,98615.16
2022-12-24T07:44:49.778Z,98624.28
2022-12-24T07:47:17.013Z,98613.66
2022-12-24T07:49:44.196Z,98619.06
2022-12-24T07:52:11.643Z,98631.31
2022-12-24T07:54:39.039Z,98619.25
2022-12-24T07:57:06.248Z,98625.72
2022-12-24T07:59:33.689Z,98628.00
2022-12-24T08:02:00.975Z,98631.00
2022-12-24T08:04:31.197Z,98640.72
2022-12-24T08:06:58.379Z,98641.56
2022-12-24T08:09:25.533Z,98651.72
2022-12-24T08:11:52.976Z,98657.81
2022-12-24T08:14:20.133Z,98672.53
2022-12-24T08:16:47.360Z,98676.13
2022-12-24T08:19:15.975Z,98676.06
2022-12-24T08:21:43.141Z,98683.50
2022-12-24T08:24:10.341Z,98697.06
2022-12-24T08:26:37.784Z,98702.19
2022-12-24T08:29:05.095Z,98703.63
2022-12-24T08:31:36.556Z,98730.09
2022-12-24T08:34:04.459Z,98723.13
2022-12-24T08:36:31.667Z,98724.88
2022-12-24T08:38:59.473Z,98726.50
2022-12-24T08:41:27.112Z,98741.09
2022-12-24T08:43:54.358Z,98739.25
2022-12-24T08:46:21.592Z,98745.63
2022-12-24T08:48:49.104Z,98737.50
2022-12-24T08:51:16.283Z,98749.97
2022-12-24T08:53:43.526Z,98759.69
2022-12-24T08:56:10.964Z,98752.97
2022-12-24T08:58:38.396Z,98757.63
2022-12-24T09:01:12.684Z,98758.03
2022-12-24T09:03:41.094Z,98760.63
2022-12-24T09:06:09.524Z,98768.69
2022-12-24T09:08:36.874Z,98767.38
2022-12-24T09:11:08.349Z,98775.81
2022-12-24T09:13:35.609Z,98782.44
2022-12-24T09:16:02.794Z,98778.09
2022-12-24T09:18:30.519Z,98794.72
2022-12-24T09:21:04.922Z,98790.84
2022-12-24T09:23:33.759Z,98788.09
2022-12-24T09:26:00.990Z,98791.91
2022-12-24T09:28:28.203Z,98791.88
2022-12-24T09:30:59.409Z,98786.78
2022-12-24T09:33:28.656Z,98794.84
2022-12-24T09:35:56.187Z,98805.59
2022-12-24T09:38:23.379Z,98793.25
2022-12-24T09:40:50.607Z,98801.78
2022-12-24T09:43:19.331Z,98798.38
2022-12-24T09:45:55.636Z,98799.16
2022-12-24T09:48:24.551Z,98787.75
2022-12-24T09:50:53.224Z,98792.13
2022-12-24T09:53:36.032Z,98787.84
2022-12-24T09:56:04.803Z,98789.44
2022-12-24T09:58:36.070Z,98783.00
2022-12-24T10:01:03.873Z,98808.69
2022-12-24T10:03:32.482Z,98814.66
2022-12-24T10:06:07.805Z,98816.00
2022-12-24T10:08:35.202Z,98826.38
2022-12-24T10:11:20.942Z,98839.34
2022-12-24T10:14:06.335Z,98826.78
2022-12-24T10:16:51.953Z,98824.16
2022-12-24T10:19:25.612Z,98823.53
2022-12-24T10:21:56.305Z,98815.47
2022-12-24T10:24:23.713Z,98828.38
2022-12-24T10:26:53.295Z,98834.75
2022-12-24T10:29:21.443Z,98842.75
2022-12-24T10:32:04.707Z,98842.72
2022-12-24T10:34:33.689Z,98855.75
2022-12-24T10:37:03.058Z,98837.84
2022-12-24T10:39:30.239Z,98847.25
2022-12-24T10:42:00.221Z,98847.53
2022-12-24T10:44:28.985Z,98851.56
2022-12-24T10:46:56.314Z,98862.09
2022-12-24T10:49:42.432Z,98858.94
2022-12-24T10:52:13.717Z,98865.72
2022-12-24T10:55:00.010Z,98858.97
2022-12-24T10:57:27.470Z,98861.84
2022-12-24T10:59:55.227Z,98850.59
2022-12-24T11:02:33.315Z,98849.28
2022-12-24T11:05:02.048Z,98853.03
2022-12-24T11:07:30.136Z,98851.09
2022-12-24T11:10:07.297Z,98851.03
2022-12-24T11:12:39.229Z,98865.81
2022-12-24T11:15:08.422Z,98856.16
2022-12-24T11:17:37.209Z,98867.63
2022-12-24T11:20:07.389Z,98865.44
2022-12-24T11:26:03.716Z,98874.28
2022-12-24T11:38:02.097Z,98881.03
2022-12-24T11:40:31.781Z,98883.94
2022-12-24T11:42:59.705Z,98885.34
2022-12-24T11:45:27.917Z,98878.03
2022-12-24T11:47:55.605Z,98881.91
2022-12-24T11:50:29.535Z,98890.91
2022-12-24T11:52:58.026Z,98891.81
2022-12-24T11:55:46.267Z,98893.09
2022-12-24T11:58:31.747Z,98895.37
2022-12-24T12:01:19.198Z,98895.00
2022-12-24T12:03:47.808Z,98889.78
2022-12-24T12:06:34.047Z,98891.69
2022-12-24T12:09:03.587Z,98901.41
2022-12-24T12:11:31.026Z,98898.00
2022-12-24T12:13:58.433Z,98901.44
2022-12-24T12:16:28.923Z,98904.13
2022-12-24T12:19:00.574Z,98904.19
2022-12-24T12:21:32.494Z,98894.72
2022-12-24T12:24:01.295Z,98901.78
2022-12-24T12:26:33.315Z,98907.84
2022-12-24T12:29:24.491Z,98902.69
2022-12-24T12:31:55.249Z,98901.91
2022-12-24T12:34:24.925Z,98907.84
2022-12-24T12:37:00.451Z,98910.22
2022-12-24T12:39:27.944Z,98929.00
2022-12-24T12:42:14.395Z,98925.69
2022-12-24T12:44:47.718Z,98934.63
2022-12-24T12:47:28.545Z,98934.56
2022-12-24T12:49:58.997Z,98936.06
2022-12-24T12:52:42.004Z,98942.13
2022-12-24T12:55:27.942Z,98944.81
2022-12-24T12:57:56.904Z,98940.56
2022-12-24T13:00:24.223Z,98941.41
2022-12-24T13:03:10.771Z,98960.47
2022-12-24T13:05:48.024Z,98949.81
2022-12-24T13:08:22.040Z,98946.38
2022-12-24T13:10:58.997Z,98946.84
2022-12-24T13:13:41.718Z,98958.03
2022-12-24T13:16:09.341Z,98980.63
2022-12-24T13:18:38.937Z,98979.50
2022-12-24T13:21:12.274Z,98970.50
2022-12-24T13:23:40.842Z,98980.47
2022-12-24T13:26:10.545Z,98974.50
2022-12-24T13:28:38.654Z,98979.56
2022-12-24T13:31:12.032Z,98978.09
2022-12-24T13:33:39.345Z,98971.00
2022-12-24T13:36:10.689Z,98967.34
2022-12-24T13:38:44.930Z,98975.19
2022-12-24T13:41:37.853Z,98980.37
2022-12-24T13:44:06.314Z,98977.88
2022-12-24T13:46:49.937Z,98980.50
2022-12-24T13:49:40.592Z,98984.06
2022-12-24T13:52:12.052Z,98980.91
2022-12-24T13:54:40.708Z,98990.62
2022-12-24T13:57:27.037Z,98977.94
2022-12-24T13:59:57.022Z,98982.66
2022-12-24T14:02:24.622Z,98984.81
2022-12-24T14:04:52.269Z,98989.63
2022-12-24T14:07:19.462Z,98998.59
2022-12-24T14:09:49.843Z,98995.44
2022-12-24T14:12:30.757Z,99004.22
2022-12-24T14:14:58.020Z,99015.06
2022-12-24T14:17:26.559Z,99015.97
2022-12-24T14:20:00.751Z,99019.31
2022-12-24T14:22:36.500Z,99020.38
2022-12-24T14:25:05.019Z,99015.22
2022-12-24T14:27:32.513Z,99021.94
2022-12-24T14:29:59.651Z,99030.34
2022-12-24T14:32:33.309Z,99030.12
2022-12-24T14:35:08.304Z,99047.75
2022-12-24T14:37:35.507Z,99054.56
2022-12-24T14:40:03.103Z,99061.50
2022-12-24T14:42:42.886Z,99055.34
2022-12-24T14:45:17.468Z,99062.28
2022-12-24T14:48:02.950Z,99059.56
2022-12-24T14:50:56.982Z,99057.75
2022-12-24T14:53:24.136Z,99055.87
2022-12-24T14:55:51.623Z,99062.56
2022-12-24T14:58:22.038Z,99063.72
2022-12-24T15:00:49.377Z,99070.97
2022-12-24T15:03:18.327Z,99074.44
2022-12-24T15:05:45.706Z,99081.78
2022-12-24T15:08:16.757Z,99077.44
2022-12-24T15:10:44.588Z,99074.22
2022-12-24T15:13:21.076Z,99080.31
2022-12-24T15:15:52.519Z,99075.59
2022-12-24T15:18:24.205Z,99086.28
2022-12-24T15:20:56.095Z,99081.34
2022-12-24T15:23:26.844Z,99097.38
2022-12-24T15:26:09.752Z,99087.44
2022-12-24T15:28:38.151Z,99088.56
2022-12-24T15:31:08.450Z,99100.91
2022-12-24T15:33:37.322Z,99092.81
2022-12-24T15:36:05.380Z,99092.56
2022-12-24T15:38:33.979Z,99110.53
2022-12-24T15:41:02.505Z,99113.16
2022-12-24T15:43:29.803Z,99127.09
2022-12-24T15:45:57.265Z,99121.91
2022-12-24T15:48:25.124Z,99103.81
2022-12-24T15:50:56.038Z,99107.16
2022-12-24T15:53:25.152Z,99109.81
2022-12-24T15:56:01.479Z,99118.03
2022-12-24T15:58:30.214Z,99124.16
2022-12-24T16:01:20.828Z,99131.97
2022-12-24T16:03:51.616Z,99136.16
2022-12-24T16:06:19.234Z,99132.69
2022-12-24T16:08:46.667Z,99143.16
2022-12-24T16:11:21.469Z,99136.03
2022-12-24T16:13:55.328Z,99135.31
2022-12-24T16:16:30.035Z,99137.13
2022-12-24T16:18:58.209Z,99127.59
2022-12-24T16:21:26.690Z,99130.00
2022-12-24T16:23:55.581Z,99144.59
2022-12-24T16:26:22.975Z,99153.16
2022-12-24T16:28:50.514Z,99141.28
2022-12-24T16:31:18.019Z,99137.72
2022-12-24T16:33:45.982Z,99152.84
2022-12-24T16:36:13.761Z,99152.81
2022-12-24T16:38:59.860Z,99144.78
2022-12-24T16:41:27.344Z,99152.97
2022-12-24T16:43:54.534Z,99149.50
2022-12-24T16:46:21.769Z,99166.09
2022-12-24T16:48:49.240Z,99173.94
2022-12-24T16:51:16.472Z,99166.22
2022-12-24T16:53:43.757Z,99174.22
2022-12-24T16:56:11.215Z,99181.19
2022-12-24T16:58:38.431Z,99187.25
2022-12-24T17:01:06.381Z,99189.94
2022-12-24T17:03:34.080Z,99186.37
2022-12-24T17:06:04.137Z,99202.88
2022-12-24T17:08:31.345Z,99197.62
2022-12-24T17:10:58.806Z,99209.88
2022-12-24T17:13:26.006Z,99216.81
2022-12-24T17:15:53.198Z,99206.50
2022-12-24T17:18:20.692Z,99208.19
2022-12-24T17:20:57.012Z,99209.06
2022-12-24T17:23:25.739Z,99211.66
2022-12-24T17:25:53.011Z,99215.94
2022-12-24T17:28:20.303Z,99223.81
2022-12-24T17:30:47.792Z,99230.81
2022-12-24T17:33:15.278Z,99219.50
2022-12-24T17:35:42.804Z,99221.22
2022-12-24T17:38:10.303Z,99216.06
2022-12-24T17:40:37.463Z,99236.91
2022-12-24T17:43:04.874Z,99236.88
2022-12-24T17:45:32.351Z,99246.44
2022-12-24T17:47:59.537Z,99226.50
2022-12-24T17:50:26.761Z,99229.06
2022-12-24T17:52:54.890Z,99233.41
2022-12-24T17:55:23.804Z,99229.06
2022-12-24T17:57:51.002Z,99231.69
2022-12-24T18:00:18.637Z,99229.94
2022-12-24T18:02:46.197Z,99233.44
2022-12-24T18:05:13.516Z,99227.31
2022-12-24T18:07:40.699Z,99233.38
2022-12-24T18:10:08.529Z,99232.53
2022-12-24T18:12:35.687Z,99243.88
2022-12-24T18:15:02.893Z,99238.66
2022-12-24T18:17:30.454Z,99228.19
2022-12-24T18:19:57.652Z,99238.63
2022-12-24T18:22:24.820Z,99241.22
2022-12-24T18:24:52.296Z,99231.69
2022-12-24T18:27:19.457Z,99231.66
2022-12-24T18:29:46.631Z,99236.88
2022-12-24T18:32:16.926Z,99242.09
2022-12-24T18:34:44.184Z,99237.78
2022-12-24T18:37:11.364Z,99261.59
2022-12-24T18:39:38.812Z,99268.91
2022-12-24T18:42:06.074Z,99275.50
2022-12-24T18:44:33.251Z,99262.37
2022-12-24T18:47:00.813Z,99267.91
2022-12-24T18:49:28.072Z,99262.81
2022-12-24T18:51:55.457Z,99255.66
2022-12-24T18:54:22.998Z,99255.88
2022-12-24T18:56:53.157Z,99253.81
2022-12-24T18:59:20.448Z,99245.13
2022-12-24T19:01:48.163Z,99248.81
2022-12-24T19:04:15.543Z,99244.91
2022-12-24T19:06:47.251Z,99244.34
2022-12-24T19:09:20.340Z,99245.38
2022-12-24T19:11:47.518Z,99241.03
2022-12-24T19:14:14.905Z,99252.91
2022-12-24T19:16:42.666Z,99259.81
2022-12-24T19:19:11.117Z,99263.13
2022-12-24T19:21:41.830Z,99269.47
2022-12-24T19:24:10.654Z,99272.22
2022-12-24T19:26:38.006Z,99285.13
2022-12-24T19:29:05.235Z,99290.53
2022-12-24T19:31:32.749Z,99288.59
2022-12-24T19:34:00.074Z,99287.97
2022-12-24T19:36:28.315Z,99294.09
2022-12-24T19:38:57.475Z,99289.59
2022-12-24T19:41:25.942Z,99294.97
2022-12-24T19:43:53.842Z,99300.66
2022-12-24T19:46:22.403Z,99301.75
2022-12-24T19:48:50.450Z,99311.62
2022-12-24T19:51:17.827Z,99314.16
2022-12-24T19:53:45.380Z,99315.91
2022-12-24T19:56:14.486Z,99325.56
2022-12-24T19:58:41.699Z,99322.94
2022-12-24T20:01:15.203Z,99330.34
2022-12-24T20:03:43.859Z,99329.03
2022-12-24T20:06:11.095Z,99323.78
2022-12-24T20:08:38.324Z,99328.97
2022-12-24T20:11:09.673Z,99331.53
2022-12-24T20:13:37.553Z,99322.09
2022-12-24T20:16:05.759Z,99320.38
2022-12-24T20:18:33.403Z,99320.25
2022-12-24T20:21:01.239Z,99320.34
2022-12-24T20:23:28.466Z,99329.06
2022-12-24T20:25:57.334Z,99334.25
2022-12-24T20:28:25.112Z,99341.19
2022-12-24T20:30:52.404Z,99336.88
2022-12-24T20:33:20.823Z,99335.16
2022-12-24T20:35:48.089Z,99343.81
2022-12-24T20:38:15.343Z,99337.75
2022-12-24T20:40:43.231Z,99347.31
2022-12-24T20:43:10.485Z,99354.22
2022-12-24T20:45:38.395Z,99355.97
2022-12-24T20:48:06.403Z,99355.09
2022-12-24T20:50:33.605Z,99351.66
2022-12-24T20:53:00.818Z,99361.19
2022-12-24T20:55:28.264Z,99369.09
2022-12-24T20:57:55.435Z,99370.78
2022-12-24T21:00:25.090Z,99376.87
2022-12-24T21:02:53.117Z,99377.75
2022-12-24T21:05:20.319Z,99385.59
2022-12-24T21:07:48.248Z,99387.28
2022-12-24T21:10:15.868Z,99379.44
2022-12-24T21:12:50.137Z,99383.00
2022-12-24T21:15:22.007Z,99383.81
2022-12-24T21:17:49.182Z,99389.84
2022-12-24T21:20:17.825Z,99395.03
2022-12-24T21:22:47.652Z,99390.69
2022-12-24T21:25:14.841Z,99386.19
2022-12-24T21:27:42.027Z,99389.81
2022-12-24T21:30:09.885Z,99392.31
2022-12-24T21:32:37.043Z,99393.16
2022-12-24T21:35:04.597Z,99395.75
2022-12-24T21:37:32.067Z,99399.25
2022-12-24T21:39:59.236Z,99415.06
2022-12-24T21:42:27.732Z,99405.78
2022-12-24T21:44:55.195Z,99412.72
2022-12-24T21:47:23.070Z,99405.75
2022-12-24T21:50:09.638Z,99407.41
2022-12-24T21:52:37.197Z,99399.06
2022-12-24T21:55:04.763Z,99400.94
2022-12-24T21:57:53.723Z,99400.44
2022-12-24T22:00:26.827Z,99390.66
2022-12-24T22:02:59.186Z,99399.78
2022-12-24T22:05:26.622Z,99398.00
2022-12-24T22:08:12.800Z,99399.06
2022-12-24T22:10:59.265Z,99404.13
2022-12-24T22:13:28.659Z,99402.09
2022-12-24T22:15:55.994Z,99390.53
2022-12-24T22:18:24.538Z,99390.81
2022-12-24T22:20:52.213Z,99388.03
2022-12-24T22:23:19.673Z,99390.09
2022-12-24T22:25:47.365Z,99393.13
2022-12-24T22:28:14.861Z,99399.28
2022-12-24T22:30:42.458Z,99400.44
2022-12-24T22:33:10.409Z,99410.44
2022-12-24T22:35:41.272Z,99414.03
2022-12-24T22:38:09.185Z,99420.63
2022-12-24T22:40:38.653Z,99423.53
2022-12-24T22:43:06.114Z,99415.09
2022-12-24T22:45:33.268Z,99414.28
2022-12-24T22:48:00.525Z,99422.25
2022-12-24T22:50:28.987Z,99418.66
2022-12-24T22:52:56.136Z,99420.69
2022-12-24T22:55:23.416Z,99412.09
2022-12-24T22:57:50.888Z,99415.69
2022-12-24T23:00:37.132Z,99421.00
2022-12-24T23:03:05.018Z,99426.28
2022-12-24T23:05:32.355Z,99431.06
2022-12-24T23:07:59.647Z,99438.78
2022-12-24T23:10:27.170Z,99434.97
2022-12-24T23:13:15.393Z,99437.59
2022-12-24T23:15:43.092Z,99429.75
2022-12-24T23:18:10.418Z,99423.66
2022-12-24T23:20:38.454Z,99432.44
2022-12-24T23:23:05.888Z,99432.50
2022-12-24T23:25:33.016Z,99421.25
2022-12-24T23:28:00.215Z,99423.88
2022-12-24T23:30:27.677Z,99440.41
2022-12-24T23:32:54.844Z,99437.78
2022-12-24T23:35:22.055Z,99436.91
2022-12-24T23:37:49.574Z,99455.19
2022-12-24T23:40:16.824Z,99453.44
2022-12-24T23:42:44.136Z,99456.03
2022-12-24T23:45:11.620Z,99451.63
2022-12-24T23:47:38.810Z,99453.41
2022-12-24T23:50:06.908Z,99460.31
2022-12-24T23:52:34.396Z,99463.00
2022-12-24T23:55:01.581Z,99470.84
2022-12-24T23:57:28.783Z,99472.59
2022-12-24T23:59:56.231Z,99468.22
